createdAt,value
2017-01-24T00:00:12.427Z,16.90
2017-01-24T00:01:12.682Z,16.89
2017-01-24T00:02:11.658Z,16.90
2017-01-24T00:03:11.687Z,16.90
2017-01-24T00:04:11.711Z,16.89
2017-01-24T00:05:11.854Z,16.90
2017-01-24T00:06:11.887Z,16.89
2017-01-24T00:07:12.883Z,16.89
2017-01-24T00:08:13.388Z,16.89
2017-01-24T00:09:13.957Z,16.89
2017-01-24T00:10:12.508Z,16.88
2017-01-24T00:11:09.707Z,16.88
2017-01-24T00:12:10.773Z,16.88
2017-01-24T00:13:12.795Z,16.88
2017-01-24T00:14:11.859Z,16.87
2017-01-24T00:15:11.889Z,16.88
2017-01-24T00:16:12.438Z,16.93
2017-01-24T00:17:13.463Z,16.87
2017-01-24T00:18:13.486Z,16.88
2017-01-24T00:19:12.512Z,16.87
2017-01-24T00:20:13.647Z,16.88
2017-01-24T00:21:12.394Z,16.88
2017-01-24T00:22:13.534Z,16.87
2017-01-24T00:23:13.207Z,16.87
2017-01-24T00:24:12.307Z,16.88
2017-01-24T00:25:12.883Z,16.95
2017-01-24T00:26:11.931Z,16.88
2017-01-24T00:27:10.956Z,16.86
2017-01-24T00:28:11.999Z,17.41
2017-01-24T00:29:12.454Z,17.46
2017-01-24T00:30:12.952Z,17.03
2017-01-24T00:31:12.080Z,16.92
2017-01-24T00:32:13.748Z,16.90
2017-01-24T00:33:12.311Z,16.93
2017-01-24T00:34:12.258Z,16.88
2017-01-24T00:35:12.265Z,16.88
2017-01-24T00:36:12.937Z,16.88
2017-01-24T00:37:12.007Z,16.89
2017-01-24T00:38:12.550Z,16.95
2017-01-24T00:39:13.073Z,16.92
2017-01-24T00:40:14.780Z,16.89
2017-01-24T00:41:11.898Z,16.89
2017-01-24T00:42:12.657Z,16.88
2017-01-24T00:43:12.275Z,16.94
2017-01-24T00:44:12.914Z,16.89
2017-01-24T00:45:10.743Z,16.88
2017-01-24T00:46:10.790Z,16.89
2017-01-24T00:47:12.470Z,17.44
2017-01-24T00:48:14.081Z,17.49
2017-01-24T00:49:12.939Z,17.52
2017-01-24T00:50:10.125Z,17.51
2017-01-24T00:51:12.257Z,17.53
2017-01-24T00:52:12.320Z,16.99
2017-01-24T00:53:12.915Z,16.95
2017-01-24T00:54:12.097Z,16.93
2017-01-24T00:55:10.808Z,16.92
2017-01-24T00:56:12.570Z,16.92
2017-01-24T00:57:13.183Z,16.91
2017-01-24T00:58:12.702Z,16.91
2017-01-24T00:59:12.150Z,16.95
2017-01-24T01:00:12.800Z,16.99
2017-01-24T01:01:13.665Z,17.45
2017-01-24T01:02:13.298Z,17.51
2017-01-24T01:03:12.369Z,17.21
2017-01-24T01:04:13.963Z,17.01
2017-01-24T01:05:12.297Z,16.97
2017-01-24T01:06:15.226Z,16.95
2017-01-24T01:07:15.088Z,16.94
2017-01-24T01:08:12.022Z,16.94
2017-01-24T01:09:12.540Z,16.92
2017-01-24T01:10:13.149Z,16.94
2017-01-24T01:11:14.624Z,16.93
2017-01-24T01:12:14.179Z,16.93
2017-01-24T01:13:14.043Z,16.98
2017-01-24T01:14:15.979Z,16.92
2017-01-24T01:15:14.057Z,16.92
2017-01-24T01:16:14.720Z,16.93
2017-01-24T01:17:14.146Z,16.92
2017-01-24T01:18:15.445Z,16.92
2017-01-24T01:19:11.773Z,16.91
2017-01-24T01:20:12.901Z,16.90
2017-01-24T01:21:12.059Z,16.91
2017-01-24T01:22:15.016Z,16.96
2017-01-24T01:23:12.650Z,16.93
2017-01-24T01:24:11.724Z,17.43
2017-01-24T01:25:14.824Z,17.49
2017-01-24T01:26:14.229Z,17.52
2017-01-24T01:27:12.832Z,17.54
2017-01-24T01:28:12.447Z,17.00
2017-01-24T01:29:13.592Z,16.95
2017-01-24T01:30:10.932Z,16.92
2017-01-24T01:31:12.592Z,16.97
2017-01-24T01:32:12.347Z,16.93
2017-01-24T01:33:13.185Z,16.90
2017-01-24T01:34:14.333Z,16.91
2017-01-24T01:35:13.338Z,16.91
2017-01-24T01:36:12.948Z,16.89
2017-01-24T01:37:12.718Z,16.93
2017-01-24T01:38:12.069Z,17.42
2017-01-24T01:39:12.139Z,17.49
2017-01-24T01:40:15.909Z,17.52
2017-01-24T01:41:13.238Z,17.53
2017-01-24T01:42:12.821Z,17.52
2017-01-24T01:43:12.557Z,17.53
2017-01-24T01:44:12.515Z,17.53
2017-01-24T01:45:12.622Z,17.53
2017-01-24T01:46:12.260Z,17.03
2017-01-24T01:47:12.393Z,16.96
2017-01-24T01:48:12.620Z,16.93
2017-01-24T01:49:11.646Z,16.91
2017-01-24T01:50:12.073Z,16.98
2017-01-24T01:51:12.639Z,16.91
2017-01-24T01:52:13.029Z,16.90
2017-01-24T01:53:12.756Z,16.89
2017-01-24T01:54:12.987Z,16.89
2017-01-24T01:55:12.169Z,16.89
2017-01-24T01:56:12.692Z,16.89
2017-01-24T01:57:12.298Z,16.89
2017-01-24T01:58:13.635Z,16.89
2017-01-24T01:59:12.235Z,16.89
2017-01-24T02:00:14.007Z,16.88
2017-01-24T02:01:12.616Z,16.89
2017-01-24T02:02:11.688Z,16.89
2017-01-24T02:03:12.308Z,16.95
2017-01-24T02:04:12.729Z,16.89
2017-01-24T02:05:11.765Z,16.89
2017-01-24T02:06:09.481Z,16.89
2017-01-24T02:07:13.314Z,16.91
2017-01-24T02:08:12.424Z,16.89
2017-01-24T02:09:14.423Z,16.89
2017-01-24T02:10:13.024Z,16.89
2017-01-24T02:11:12.542Z,16.89
2017-01-24T02:12:13.116Z,16.89
2017-01-24T02:13:12.791Z,16.89
2017-01-24T02:14:12.746Z,16.89
2017-01-24T02:15:10.625Z,16.88
2017-01-24T02:16:12.610Z,17.43
2017-01-24T02:17:12.616Z,17.48
2017-01-24T02:18:12.416Z,17.51
2017-01-24T02:19:14.031Z,17.53
2017-01-24T02:20:12.920Z,17.52
2017-01-24T02:21:13.771Z,17.53
2017-01-24T02:22:12.663Z,17.54
2017-01-24T02:23:12.877Z,17.53
2017-01-24T02:24:11.916Z,17.01
2017-01-24T02:25:14.456Z,16.95
2017-01-24T02:26:14.166Z,16.97
2017-01-24T02:27:12.759Z,16.92
2017-01-24T02:28:11.925Z,16.91
2017-01-24T02:29:11.975Z,16.92
2017-01-24T02:30:12.532Z,16.91
2017-01-24T02:31:11.656Z,16.91
2017-01-24T02:32:12.334Z,16.91
2017-01-24T02:33:13.994Z,16.89
2017-01-24T02:34:13.639Z,16.90
2017-01-24T02:35:11.773Z,16.90
2017-01-24T02:36:12.776Z,16.89
2017-01-24T02:37:11.853Z,16.90
2017-01-24T02:38:11.828Z,16.90
2017-01-24T02:39:13.156Z,16.89
2017-01-24T02:40:12.852Z,17.43
2017-01-24T02:41:12.651Z,17.48
2017-01-24T02:42:13.380Z,16.97
2017-01-24T02:43:12.305Z,16.92
2017-01-24T02:44:12.401Z,16.90
2017-01-24T02:45:13.064Z,16.90
2017-01-24T02:46:12.684Z,16.94
2017-01-24T02:47:11.823Z,16.89
2017-01-24T02:48:11.558Z,16.88
2017-01-24T02:49:12.363Z,16.89
2017-01-24T02:50:13.281Z,16.88
2017-01-24T02:51:13.243Z,16.88
2017-01-24T02:52:11.242Z,16.86
2017-01-24T02:53:15.049Z,16.87
2017-01-24T02:54:09.372Z,16.87
2017-01-24T02:55:13.834Z,16.87
2017-01-24T02:56:13.123Z,16.90
2017-01-24T02:57:12.584Z,17.40
2017-01-24T02:58:12.718Z,17.45
2017-01-24T02:59:12.325Z,17.48
2017-01-24T03:00:12.186Z,17.48
2017-01-24T03:01:12.765Z,17.50
2017-01-24T03:02:12.840Z,17.50
2017-01-24T03:03:12.510Z,17.50
2017-01-24T03:04:11.400Z,17.50
2017-01-24T03:05:11.582Z,17.49
2017-01-24T03:06:12.252Z,17.50
2017-01-24T03:07:09.511Z,17.52
2017-01-24T03:08:13.215Z,17.50
2017-01-24T03:09:13.828Z,17.22
2017-01-24T03:10:12.522Z,16.97
2017-01-24T03:11:14.174Z,16.92
2017-01-24T03:12:14.111Z,16.89
2017-01-24T03:13:12.783Z,16.88
2017-01-24T03:14:12.485Z,16.87
2017-01-24T03:15:13.338Z,16.86
2017-01-24T03:16:11.005Z,16.85
2017-01-24T03:17:12.119Z,17.07
2017-01-24T03:18:12.690Z,16.89
2017-01-24T03:19:12.174Z,16.91
2017-01-24T03:20:13.903Z,16.86
2017-01-24T03:21:11.885Z,16.85
2017-01-24T03:22:14.126Z,16.84
2017-01-24T03:23:12.774Z,16.84
2017-01-24T03:24:12.932Z,16.85
2017-01-24T03:25:13.152Z,16.86
2017-01-24T03:26:12.959Z,16.86
2017-01-24T03:27:12.718Z,16.86
2017-01-24T03:28:12.417Z,16.85
2017-01-24T03:29:12.449Z,16.83
2017-01-24T03:30:13.328Z,16.85
2017-01-24T03:31:13.244Z,16.83
2017-01-24T03:32:12.305Z,16.84
2017-01-24T03:33:12.901Z,16.84
2017-01-24T03:34:13.226Z,16.85
2017-01-24T03:35:13.766Z,16.83
2017-01-24T03:36:11.772Z,16.84
2017-01-24T03:37:12.584Z,16.85
2017-01-24T03:38:14.368Z,16.84
2017-01-24T03:39:12.361Z,16.84
2017-01-24T03:40:12.491Z,16.84
2017-01-24T03:41:13.119Z,16.88
2017-01-24T03:42:12.102Z,16.85
2017-01-24T03:43:12.057Z,16.84
2017-01-24T03:44:12.826Z,16.85
2017-01-24T03:45:12.389Z,16.91
2017-01-24T03:46:10.518Z,16.84
2017-01-24T03:47:12.472Z,16.85
2017-01-24T03:48:13.052Z,16.84
2017-01-24T03:49:12.641Z,16.89
2017-01-24T03:50:10.426Z,16.84
2017-01-24T03:51:13.377Z,16.86
2017-01-24T03:52:10.525Z,16.85
2017-01-24T03:53:12.683Z,16.86
2017-01-24T03:54:12.634Z,16.88
2017-01-24T03:55:12.234Z,16.88
2017-01-24T03:56:11.479Z,16.85
2017-01-24T03:57:13.304Z,16.86
2017-01-24T03:58:12.289Z,16.86
2017-01-24T03:59:11.471Z,16.86
2017-01-24T04:00:12.216Z,16.93
2017-01-24T04:01:13.785Z,16.87
2017-01-24T04:02:13.091Z,16.87
2017-01-24T04:03:12.221Z,16.88
2017-01-24T04:04:12.246Z,16.87
2017-01-24T04:05:12.851Z,16.88
2017-01-24T04:06:12.566Z,16.88
2017-01-24T04:07:09.354Z,16.87
2017-01-24T04:08:12.513Z,16.88
2017-01-24T04:09:13.325Z,16.88
2017-01-24T04:10:13.845Z,16.87
2017-01-24T04:11:11.831Z,16.87
2017-01-24T04:12:12.852Z,16.88
2017-01-24T04:13:13.462Z,16.92
2017-01-24T04:14:11.284Z,17.42
2017-01-24T04:15:13.018Z,17.46
2017-01-24T04:16:12.516Z,17.50
2017-01-24T04:17:12.762Z,17.50
2017-01-24T04:18:10.389Z,17.50
2017-01-24T04:19:10.502Z,17.51
2017-01-24T04:20:12.476Z,17.51
2017-01-24T04:21:12.929Z,17.50
2017-01-24T04:22:12.075Z,17.50
2017-01-24T04:23:13.913Z,17.52
2017-01-24T04:24:12.553Z,17.51
2017-01-24T04:25:13.384Z,17.18
2017-01-24T04:26:15.084Z,16.96
2017-01-24T04:27:12.266Z,16.92
2017-01-24T04:28:14.257Z,16.89
2017-01-24T04:29:15.373Z,16.88
2017-01-24T04:30:12.460Z,16.88
2017-01-24T04:31:13.046Z,16.86
2017-01-24T04:32:14.976Z,16.86
2017-01-24T04:33:12.007Z,16.86
2017-01-24T04:34:12.826Z,16.86
2017-01-24T04:35:12.725Z,16.86
2017-01-24T04:36:11.794Z,16.85
2017-01-24T04:37:11.828Z,16.85
2017-01-24T04:38:11.967Z,16.85
2017-01-24T04:39:13.459Z,16.84
2017-01-24T04:40:13.015Z,16.91
2017-01-24T04:41:11.927Z,16.85
2017-01-24T04:42:11.952Z,16.84
2017-01-24T04:43:10.502Z,16.84
2017-01-24T04:44:12.419Z,17.39
2017-01-24T04:45:12.425Z,17.11
2017-01-24T04:46:13.660Z,17.01
2017-01-24T04:47:10.855Z,17.41
2017-01-24T04:48:12.011Z,17.46
2017-01-24T04:49:12.170Z,17.48
2017-01-24T04:50:13.023Z,17.48
2017-01-24T04:51:12.246Z,17.49
2017-01-24T04:52:12.260Z,16.95
2017-01-24T04:53:10.938Z,16.88
2017-01-24T04:54:12.099Z,17.40
2017-01-24T04:55:12.387Z,17.13
2017-01-24T04:56:11.383Z,16.92
2017-01-24T04:57:12.584Z,17.36
2017-01-24T04:58:11.559Z,17.43
2017-01-24T04:59:14.384Z,17.46
2017-01-24T05:00:12.877Z,17.09
2017-01-24T05:01:12.638Z,16.93
2017-01-24T05:02:12.457Z,16.90
2017-01-24T05:03:13.177Z,16.87
2017-01-24T05:04:12.626Z,16.85
2017-01-24T05:05:13.208Z,16.84
2017-01-24T05:06:12.377Z,16.84
2017-01-24T05:07:13.509Z,16.84
2017-01-24T05:08:12.609Z,16.83
2017-01-24T05:09:12.127Z,16.83
2017-01-24T05:10:12.146Z,16.83
2017-01-24T05:11:12.193Z,16.83
2017-01-24T05:12:13.630Z,16.91
2017-01-24T05:13:12.386Z,17.36
2017-01-24T05:14:14.133Z,16.90
2017-01-24T05:15:12.098Z,16.86
2017-01-24T05:16:12.639Z,16.85
2017-01-24T05:17:12.388Z,16.89
2017-01-24T05:18:13.726Z,16.91
2017-01-24T05:19:10.666Z,16.84
2017-01-24T05:20:11.769Z,16.85
2017-01-24T05:21:12.871Z,16.85
2017-01-24T05:22:12.067Z,16.84
2017-01-24T05:23:12.996Z,16.85
2017-01-24T05:24:12.014Z,16.85
2017-01-24T05:25:16.029Z,16.85
2017-01-24T05:26:17.820Z,16.86
2017-01-24T05:27:16.353Z,16.87
2017-01-24T05:28:12.760Z,16.88
2017-01-24T05:29:11.805Z,16.88
2017-01-24T05:30:11.811Z,16.88
2017-01-24T05:31:12.789Z,16.88
2017-01-24T05:32:11.949Z,16.89
2017-01-24T05:33:11.864Z,16.89
2017-01-24T05:34:11.794Z,16.88
2017-01-24T05:35:13.617Z,17.29
2017-01-24T05:36:11.670Z,16.94
2017-01-24T05:37:12.612Z,16.92
2017-01-24T05:38:11.737Z,16.91
2017-01-24T05:39:11.881Z,16.90
2017-01-24T05:40:11.882Z,16.90
2017-01-24T05:41:11.849Z,16.90
2017-01-24T05:42:09.354Z,16.89
2017-01-24T05:43:12.660Z,16.89
2017-01-24T05:44:12.861Z,16.93
2017-01-24T05:45:12.664Z,16.92
2017-01-24T05:46:12.079Z,16.95
2017-01-24T05:47:13.380Z,16.88
2017-01-24T05:48:13.171Z,16.90
2017-01-24T05:49:10.390Z,16.89
2017-01-24T05:50:13.605Z,16.96
2017-01-24T05:51:11.684Z,17.42
2017-01-24T05:52:13.430Z,17.47
2017-01-24T05:53:12.517Z,17.49
2017-01-24T05:54:12.600Z,17.51
2017-01-24T05:55:13.370Z,17.51
2017-01-24T05:56:12.427Z,16.99
2017-01-24T05:57:11.385Z,16.93
2017-01-24T05:58:13.840Z,16.93
2017-01-24T05:59:11.757Z,16.92
2017-01-24T06:00:11.849Z,16.92
2017-01-24T06:01:11.896Z,16.92
2017-01-24T06:02:12.507Z,17.00
2017-01-24T06:03:13.217Z,17.46
2017-01-24T06:04:13.788Z,17.52
2017-01-24T06:05:11.902Z,17.54
2017-01-24T06:06:13.249Z,17.55
2017-01-24T06:07:12.239Z,17.57
2017-01-24T06:08:13.459Z,17.56
2017-01-24T06:09:15.433Z,17.56
2017-01-24T06:10:13.536Z,17.05
2017-01-24T06:11:13.130Z,17.04
2017-01-24T06:12:13.640Z,16.96
2017-01-24T06:13:12.312Z,16.95
2017-01-24T06:14:13.283Z,16.95
2017-01-24T06:15:13.885Z,16.94
2017-01-24T06:16:11.938Z,16.94
2017-01-24T06:17:12.158Z,16.95
2017-01-24T06:18:12.588Z,17.01
2017-01-24T06:19:12.382Z,16.94
2017-01-24T06:20:12.858Z,16.94
2017-01-24T06:21:12.578Z,16.94
2017-01-24T06:22:12.683Z,16.94
2017-01-24T06:23:11.802Z,16.93
2017-01-24T06:24:11.950Z,16.93
2017-01-24T06:25:12.155Z,16.92
2017-01-24T06:26:14.765Z,16.92
2017-01-24T06:27:11.882Z,16.92
2017-01-24T06:28:12.994Z,16.91
2017-01-24T06:29:11.914Z,16.91
2017-01-24T06:30:13.609Z,16.90
2017-01-24T06:31:11.740Z,16.90
2017-01-24T06:32:12.370Z,16.89
2017-01-24T06:33:13.265Z,16.89
2017-01-24T06:34:12.308Z,16.88
2017-01-24T06:35:12.401Z,16.89
2017-01-24T06:36:12.864Z,16.88
2017-01-24T06:37:12.068Z,16.88
2017-01-24T06:38:12.064Z,16.88
2017-01-24T06:39:12.027Z,16.87
2017-01-24T06:40:12.641Z,16.87
2017-01-24T06:41:12.285Z,16.88
2017-01-24T06:42:12.293Z,16.87
2017-01-24T06:43:12.686Z,16.94
2017-01-24T06:44:10.731Z,16.86
2017-01-24T06:45:13.328Z,17.40
2017-01-24T06:46:12.998Z,17.45
2017-01-24T06:47:12.157Z,17.48
2017-01-24T06:48:12.170Z,17.51
2017-01-24T06:49:13.943Z,17.51
2017-01-24T06:50:13.089Z,16.98
2017-01-24T06:51:17.071Z,16.93
2017-01-24T06:52:12.992Z,16.90
2017-01-24T06:53:12.663Z,16.92
2017-01-24T06:54:12.360Z,17.04
2017-01-24T06:55:12.540Z,16.92
2017-01-24T06:56:12.615Z,16.94
2017-01-24T06:57:11.741Z,16.97
2017-01-24T06:58:12.067Z,16.98
2017-01-24T06:59:12.685Z,17.01
2017-01-24T07:00:12.558Z,17.35
2017-01-24T07:01:14.271Z,17.11
2017-01-24T07:02:12.237Z,17.08
2017-01-24T07:03:12.817Z,17.09
2017-01-24T07:04:11.753Z,17.09
2017-01-24T07:05:12.034Z,17.08
2017-01-24T07:06:12.592Z,17.11
2017-01-24T07:07:12.718Z,17.57
2017-01-24T07:08:12.413Z,17.61
2017-01-24T07:09:12.939Z,17.64
2017-01-24T07:10:12.668Z,17.64
2017-01-24T07:11:12.219Z,17.11
2017-01-24T07:12:12.103Z,17.05
2017-01-24T07:13:12.190Z,17.03
2017-01-24T07:14:12.770Z,17.02
2017-01-24T07:15:11.897Z,17.01
2017-01-24T07:16:12.597Z,17.00
2017-01-24T07:17:11.931Z,16.99
2017-01-24T07:18:11.911Z,16.99
2017-01-24T07:19:12.783Z,17.01
2017-01-24T07:20:12.800Z,16.99
2017-01-24T07:21:09.235Z,16.98
2017-01-24T07:22:11.583Z,16.98
2017-01-24T07:23:11.735Z,16.99
2017-01-24T07:24:11.624Z,16.99
2017-01-24T07:25:11.756Z,16.98
2017-01-24T07:26:12.178Z,17.01
2017-01-24T07:27:12.365Z,16.98
2017-01-24T07:28:12.324Z,16.98
2017-01-24T07:29:13.311Z,16.99
2017-01-24T07:30:13.501Z,16.99
2017-01-24T07:31:12.982Z,17.06
2017-01-24T07:32:13.916Z,16.99
2017-01-24T07:33:11.790Z,17.00
2017-01-24T07:34:09.260Z,17.01
2017-01-24T07:35:11.960Z,17.01
2017-01-24T07:36:13.657Z,17.01
2017-01-24T07:37:12.028Z,17.01
2017-01-24T07:38:12.949Z,17.00
2017-01-24T07:39:12.399Z,17.00
2017-01-24T07:40:12.340Z,17.00
2017-01-24T07:41:12.427Z,17.00
2017-01-24T07:42:12.998Z,17.01
2017-01-24T07:43:12.681Z,17.03
2017-01-24T07:44:12.178Z,17.04
2017-01-24T07:45:12.151Z,17.01
2017-01-24T07:46:12.780Z,17.01
2017-01-24T07:47:11.849Z,17.02
2017-01-24T07:48:09.516Z,17.00
2017-01-24T07:49:12.748Z,17.01
2017-01-24T07:50:12.299Z,17.01
2017-01-24T07:51:12.295Z,17.00
2017-01-24T07:52:12.955Z,17.08
2017-01-24T07:53:11.023Z,17.02
2017-01-24T07:54:13.044Z,17.02
2017-01-24T07:55:12.634Z,17.06
2017-01-24T07:56:12.149Z,17.04
2017-01-24T07:57:12.040Z,17.03
2017-01-24T07:58:10.084Z,17.02
2017-01-24T07:59:12.948Z,17.03
2017-01-24T08:00:12.752Z,17.02
2017-01-24T08:01:10.914Z,17.01
2017-01-24T08:02:12.845Z,17.57
2017-01-24T08:03:09.386Z,17.62
2017-01-24T08:04:10.978Z,17.63
2017-01-24T08:05:12.214Z,17.27
2017-01-24T08:06:13.150Z,17.08
2017-01-24T08:07:11.998Z,17.03
2017-01-24T08:08:12.537Z,17.07
2017-01-24T08:09:13.138Z,16.99
2017-01-24T08:10:10.918Z,16.96
2017-01-24T08:11:12.259Z,16.96
2017-01-24T08:12:12.481Z,16.96
2017-01-24T08:13:12.516Z,16.95
2017-01-24T08:14:12.516Z,16.95
2017-01-24T08:15:11.559Z,16.94
2017-01-24T08:16:09.814Z,17.48
2017-01-24T08:17:12.321Z,17.53
2017-01-24T08:18:12.982Z,17.19
2017-01-24T08:19:12.547Z,17.02
2017-01-24T08:20:11.222Z,16.97
2017-01-24T08:21:12.869Z,17.48
2017-01-24T08:22:13.666Z,17.53
2017-01-24T08:23:11.758Z,17.54
2017-01-24T08:24:11.848Z,17.02
2017-01-24T08:25:12.471Z,16.97
2017-01-24T08:26:12.541Z,16.95
2017-01-24T08:27:14.080Z,16.92
2017-01-24T08:28:12.240Z,16.93
2017-01-24T08:29:12.806Z,16.92
2017-01-24T08:30:12.349Z,16.91
2017-01-24T08:31:10.992Z,16.91
2017-01-24T08:32:13.811Z,16.91
2017-01-24T08:33:12.069Z,16.92
2017-01-24T08:34:13.221Z,16.92
2017-01-24T08:35:13.766Z,16.92
2017-01-24T08:36:12.507Z,16.92
2017-01-24T08:37:12.701Z,16.91
2017-01-24T08:38:11.810Z,16.92
2017-01-24T08:39:12.829Z,16.88
2017-01-24T08:40:09.469Z,16.80
2017-01-24T08:41:13.167Z,16.72
2017-01-24T08:42:12.300Z,16.63
2017-01-24T08:43:12.368Z,16.56
2017-01-24T08:44:13.065Z,16.48
2017-01-24T08:45:12.840Z,16.42
2017-01-24T08:46:12.299Z,16.38
2017-01-24T08:47:13.156Z,16.38
2017-01-24T08:48:12.790Z,16.91
2017-01-24T08:49:11.984Z,16.99
2017-01-24T08:50:12.156Z,17.06
2017-01-24T08:51:12.603Z,16.82
2017-01-24T08:52:12.153Z,16.68
2017-01-24T08:53:12.049Z,16.63
2017-01-24T08:54:12.617Z,16.65
2017-01-24T08:55:11.725Z,16.68
2017-01-24T08:56:12.604Z,16.70
2017-01-24T08:57:11.489Z,16.71
2017-01-24T08:58:13.060Z,16.74
2017-01-24T08:59:12.825Z,17.29
2017-01-24T09:00:12.960Z,17.03
2017-01-24T09:01:12.130Z,16.87
2017-01-24T09:02:12.162Z,16.84
2017-01-24T09:03:12.689Z,16.84
2017-01-24T09:04:11.719Z,16.85
2017-01-24T09:05:12.677Z,16.85
2017-01-24T09:06:09.939Z,16.84
2017-01-24T09:07:10.838Z,16.84
2017-01-24T09:08:11.890Z,17.37
2017-01-24T09:09:11.940Z,16.90
2017-01-24T09:10:11.989Z,16.87
2017-01-24T09:11:12.009Z,16.85
2017-01-24T09:12:12.647Z,16.84
2017-01-24T09:13:12.080Z,16.90
2017-01-24T09:14:12.190Z,16.85
2017-01-24T09:15:12.094Z,16.84
2017-01-24T09:16:13.050Z,16.84
2017-01-24T09:17:12.265Z,16.85
2017-01-24T09:18:14.938Z,16.85
2017-01-24T09:19:12.702Z,16.85
2017-01-24T09:20:12.463Z,16.88
2017-01-24T09:21:13.110Z,16.86
2017-01-24T09:22:13.228Z,16.86
2017-01-24T09:23:13.055Z,16.86
2017-01-24T09:24:12.580Z,16.94
2017-01-24T09:25:13.092Z,16.87
2017-01-24T09:26:12.196Z,16.86
2017-01-24T09:27:12.269Z,16.87
2017-01-24T09:28:12.348Z,16.88
2017-01-24T09:29:12.239Z,16.88
2017-01-24T09:30:12.902Z,16.95
2017-01-24T09:31:12.567Z,16.88
2017-01-24T09:32:12.687Z,16.89
2017-01-24T09:33:11.751Z,16.88
2017-01-24T09:34:12.760Z,16.89
2017-01-24T09:35:12.120Z,16.94
2017-01-24T09:36:13.774Z,16.88
2017-01-24T09:37:13.347Z,16.88
2017-01-24T09:38:14.153Z,16.89
2017-01-24T09:39:14.305Z,16.86
2017-01-24T09:40:12.849Z,16.69
2017-01-24T09:41:09.409Z,16.54
2017-01-24T09:42:13.100Z,16.14
2017-01-24T09:43:12.762Z,14.07
2017-01-24T09:44:12.251Z,12.73
2017-01-24T09:45:14.078Z,11.40
2017-01-24T09:46:12.116Z,10.70
2017-01-24T09:47:12.290Z,9.85
2017-01-24T09:48:13.127Z,9.25
2017-01-24T09:49:12.948Z,9.27
2017-01-24T09:50:11.888Z,10.09
2017-01-24T09:51:12.369Z,11.33
2017-01-24T09:52:12.915Z,12.38
2017-01-24T09:53:10.753Z,13.02
2017-01-24T09:54:10.723Z,14.09
2017-01-24T09:55:12.506Z,14.56
2017-01-24T09:56:10.080Z,14.93
2017-01-24T09:57:12.808Z,15.31
2017-01-24T09:58:13.550Z,15.61
2017-01-24T09:59:12.290Z,15.85
2017-01-24T10:00:12.439Z,15.69
2017-01-24T10:01:12.472Z,15.63
2017-01-24T10:02:12.407Z,15.69
2017-01-24T10:03:10.746Z,15.76
2017-01-24T10:04:11.896Z,15.84
2017-01-24T10:05:11.946Z,15.95
2017-01-24T10:06:12.400Z,16.09
2017-01-24T10:07:12.445Z,16.59
2017-01-24T10:08:12.930Z,16.70
2017-01-24T10:09:12.592Z,16.79
2017-01-24T10:10:11.758Z,16.88
2017-01-24T10:11:12.790Z,16.93
2017-01-24T10:12:12.500Z,16.96
2017-01-24T10:13:12.498Z,16.45
2017-01-24T10:14:12.953Z,16.45
2017-01-24T10:15:13.052Z,16.43
2017-01-24T10:16:12.087Z,16.46
2017-01-24T10:17:12.761Z,16.47
2017-01-24T10:18:09.386Z,16.48
2017-01-24T10:19:14.031Z,16.53
2017-01-24T10:20:12.679Z,16.55
2017-01-24T10:21:11.864Z,16.57
2017-01-24T10:22:12.955Z,16.62
2017-01-24T10:23:11.950Z,16.64
2017-01-24T10:24:12.892Z,16.66
2017-01-24T10:25:12.108Z,16.70
2017-01-24T10:26:11.218Z,16.68
2017-01-24T10:27:11.953Z,16.68
2017-01-24T10:28:10.908Z,16.68
2017-01-24T10:29:12.541Z,16.75
2017-01-24T10:30:11.208Z,16.74
2017-01-24T10:31:13.066Z,16.76
2017-01-24T10:32:10.953Z,16.78
2017-01-24T10:33:11.282Z,16.82
2017-01-24T10:34:12.924Z,17.38
2017-01-24T10:35:12.502Z,16.90
2017-01-24T10:36:11.089Z,16.89
2017-01-24T10:37:12.565Z,16.89
2017-01-24T10:38:13.158Z,16.89
2017-01-24T10:39:12.087Z,16.88
2017-01-24T10:40:12.939Z,16.88
2017-01-24T10:41:13.552Z,16.74
2017-01-24T10:42:16.607Z,16.58
2017-01-24T10:43:12.480Z,16.44
2017-01-24T10:44:13.582Z,16.38
2017-01-24T10:45:12.609Z,16.43
2017-01-24T10:46:12.298Z,16.49
2017-01-24T10:47:12.304Z,16.55
2017-01-24T10:48:11.237Z,16.57
2017-01-24T10:49:12.542Z,16.64
2017-01-24T10:50:12.141Z,16.69
2017-01-24T10:51:12.555Z,17.24
2017-01-24T10:52:13.262Z,17.33
2017-01-24T10:53:12.201Z,17.36
2017-01-24T10:54:13.117Z,17.40
2017-01-24T10:55:12.921Z,17.42
2017-01-24T10:56:11.890Z,17.44
2017-01-24T10:57:11.871Z,17.46
2017-01-24T10:58:11.930Z,17.48
2017-01-24T10:59:13.575Z,17.11
2017-01-24T11:00:11.572Z,16.95
2017-01-24T11:01:13.207Z,16.91
2017-01-24T11:02:12.766Z,16.88
2017-01-24T11:03:11.762Z,16.87
2017-01-24T11:04:11.850Z,16.87
2017-01-24T11:05:12.010Z,16.86
2017-01-24T11:06:10.421Z,16.85
2017-01-24T11:07:12.336Z,16.86
2017-01-24T11:08:12.748Z,16.85
2017-01-24T11:09:11.882Z,16.87
2017-01-24T11:10:13.143Z,16.86
2017-01-24T11:11:10.808Z,16.84
2017-01-24T11:12:11.150Z,17.38
2017-01-24T11:13:12.600Z,17.18
2017-01-24T11:14:11.625Z,16.92
2017-01-24T11:15:11.822Z,16.88
2017-01-24T11:16:13.642Z,16.86
2017-01-24T11:17:10.723Z,16.84
2017-01-24T11:18:12.378Z,17.38
2017-01-24T11:19:13.102Z,17.43
2017-01-24T11:20:12.090Z,17.08
2017-01-24T11:21:13.745Z,16.91
2017-01-24T11:22:14.429Z,16.86
2017-01-24T11:23:13.045Z,16.84
2017-01-24T11:24:12.088Z,16.83
2017-01-24T11:25:12.190Z,16.81
2017-01-24T11:26:12.197Z,16.80
2017-01-24T11:27:12.813Z,16.79
2017-01-24T11:28:11.956Z,16.79
2017-01-24T11:29:12.131Z,16.78
2017-01-24T11:30:12.210Z,16.77
2017-01-24T11:31:12.235Z,16.77
2017-01-24T11:32:12.380Z,16.77
2017-01-24T11:33:13.007Z,16.76
2017-01-24T11:34:12.126Z,16.77
2017-01-24T11:35:12.212Z,16.77
2017-01-24T11:36:12.195Z,16.76
2017-01-24T11:37:10.289Z,16.75
2017-01-24T11:38:12.902Z,16.79
2017-01-24T11:39:13.342Z,16.76
2017-01-24T11:40:13.409Z,16.76
2017-01-24T11:41:14.260Z,16.75
2017-01-24T11:42:12.886Z,16.74
2017-01-24T11:43:12.180Z,16.74
2017-01-24T11:44:12.441Z,16.71
2017-01-24T11:45:13.063Z,16.77
2017-01-24T11:46:12.650Z,16.78
2017-01-24T11:47:12.244Z,16.77
2017-01-24T11:48:12.710Z,16.84
2017-01-24T11:49:13.469Z,16.77
2017-01-24T11:50:10.738Z,16.84
2017-01-24T11:51:11.680Z,17.05
2017-01-24T11:52:12.153Z,17.25
2017-01-24T11:53:12.599Z,17.22
2017-01-24T11:54:10.195Z,17.13
2017-01-24T11:55:12.532Z,17.62
2017-01-24T11:56:12.562Z,17.62
2017-01-24T11:57:12.358Z,17.62
2017-01-24T11:58:13.104Z,17.62
2017-01-24T11:59:12.145Z,17.59
2017-01-24T12:00:12.265Z,17.21
2017-01-24T12:01:12.872Z,17.02
2017-01-24T12:02:12.363Z,16.97
2017-01-24T12:03:12.426Z,16.94
2017-01-24T12:04:12.834Z,16.92
2017-01-24T12:05:11.875Z,16.91
2017-01-24T12:06:13.353Z,16.89
2017-01-24T12:07:14.121Z,16.89
2017-01-24T12:08:12.716Z,16.89
2017-01-24T12:09:11.746Z,16.88
2017-01-24T12:10:11.819Z,16.88
2017-01-24T12:11:11.979Z,16.87
2017-01-24T12:12:12.692Z,16.90
2017-01-24T12:13:12.377Z,16.88
2017-01-24T12:14:13.879Z,16.87
2017-01-24T12:15:11.923Z,16.86
2017-01-24T12:16:10.621Z,16.86
2017-01-24T12:17:12.276Z,16.87
2017-01-24T12:18:13.887Z,16.86
2017-01-24T12:19:11.859Z,16.87
2017-01-24T12:20:12.380Z,16.87
2017-01-24T12:21:12.868Z,16.93
2017-01-24T12:22:13.591Z,16.86
2017-01-24T12:23:11.561Z,16.87
2017-01-24T12:24:13.041Z,16.86
2017-01-24T12:25:12.112Z,16.87
2017-01-24T12:26:12.241Z,16.86
2017-01-24T12:27:10.820Z,16.86
2017-01-24T12:28:12.848Z,17.41
2017-01-24T12:29:12.493Z,17.47
2017-01-24T12:30:12.182Z,17.50
2017-01-24T12:31:13.752Z,17.50
2017-01-24T12:32:12.343Z,16.98
2017-01-24T12:33:12.480Z,16.93
2017-01-24T12:34:14.048Z,16.91
2017-01-24T12:35:11.179Z,16.89
2017-01-24T12:36:13.429Z,16.88
2017-01-24T12:37:11.701Z,16.89
2017-01-24T12:38:10.651Z,16.87
2017-01-24T12:39:09.287Z,17.42
2017-01-24T12:40:12.738Z,17.01
2017-01-24T12:41:11.720Z,16.91
2017-01-24T12:42:11.829Z,16.90
2017-01-24T12:43:12.006Z,16.89
2017-01-24T12:44:12.247Z,16.89
2017-01-24T12:45:12.298Z,16.89
2017-01-24T12:46:17.431Z,16.88
2017-01-24T12:47:12.456Z,16.88
2017-01-24T12:48:12.478Z,16.88
2017-01-24T12:49:12.627Z,16.88
2017-01-24T12:50:09.824Z,16.88
2017-01-24T12:51:12.136Z,16.92
2017-01-24T12:52:13.789Z,17.42